Time;durP1;ratioP1;P1;durP2;ratioP2;P2;SDS_P1;SDS_P2;PMS_P1;PMS_P2;Temp;Humidity;BMP_temperature;BMP_pressure;BME280_temperature;BME280_humidity;BME280_pressure;Samples;Min_cycle;Max_cycle;Signal;HPM_P1;HPM_P2
2022/05/28 00:00:53;;;;;;;11.93;1.55;;;;;;;;;;5088878;28;20031;-73
2022/05/28 00:03:20;;;;;;;10.30;1.58;;;;;;;;;;5071595;28;20495;-73
2022/05/28 00:05:47;;;;;;;11.13;1.52;;;;;;;;;;5075189;28;20036;-73
2022/05/28 00:08:13;;;;;;;8.70;1.35;;;;;;;;;;5097183;28;20376;-73
2022/05/28 00:10:39;;;;;;;8.25;1.35;;;;;;;;;;5112045;28;20092;-73
2022/05/28 00:13:05;;;;;;;11.13;1.65;;;;;;;;;;5075080;28;20039;-73
2022/05/28 00:15:31;;;;;;;10.25;1.60;;;;;;;;;;5073173;28;20036;-72
2022/05/28 00:17:58;;;;;;;13.45;1.70;;;;;;;;;;5103272;28;20157;-72
2022/05/28 00:20:25;;;;;;;11.88;1.35;;;;;;;;;;5110217;28;20538;-73
2022/05/28 00:22:51;;;;;;;11.60;1.85;;;;;;;;;;5104864;28;20035;-73
2022/05/28 00:25:17;;;;;;;8.93;1.50;;;;;;;;;;5092808;28;20383;-73
2022/05/28 00:27:43;;;;;;;10.52;1.25;;;;;;;;;;5106463;28;20529;-73
2022/05/28 00:30:11;;;;;;;13.07;1.45;;;;;;;;;;5107115;28;20535;-72
2022/05/28 00:32:37;;;;;;;4.63;1.00;;;;;;;;;;5089839;28;20040;-72
2022/05/28 00:35:04;;;;;;;11.25;1.88;;;;;;;;;;5107235;28;20046;-73
2022/05/28 00:37:30;;;;;;;5.05;1.63;;;;;;;;;;5106242;28;20139;-72
2022/05/28 00:39:56;;;;;;;9.73;0.95;;;;;;;;;;5077547;28;20115;-72
2022/05/28 00:42:22;;;;;;;12.43;1.80;;;;;;;;;;5091968;28;20028;-73
2022/05/28 00:44:48;;;;;;;7.00;1.00;;;;;;;;;;5102734;28;20034;-73
2022/05/28 00:47:14;;;;;;;13.88;1.77;;;;;;;;;;5093934;28;20027;-73
2022/05/28 00:49:41;;;;;;;10.32;2.45;;;;;;;;;;5100621;28;20059;-73
2022/05/28 00:52:07;;;;;;;12.95;1.27;;;;;;;;;;5096275;28;20047;-73
2022/05/28 00:54:39;;;;;;;13.35;2.08;;;;;;;;;;5106750;28;20545;-73
2022/05/28 00:57:06;;;;;;;9.15;1.27;;;;;;;;;;5081623;28;20096;-73
2022/05/28 00:59:32;;;;;;;12.48;1.45;;;;;;;;;;5097037;28;20106;-73
2022/05/28 01:02:15;;;;;;;11.25;1.52;;;;;;;;;;5075700;28;20147;-73
2022/05/28 01:04:50;;;;;;;9.68;1.55;;;;;;;;;;5094034;28;20107;-73
2022/05/28 01:07:16;;;;;;;16.92;2.13;;;;;;;;;;5089612;28;20036;-73
2022/05/28 01:09:53;;;;;;;10.85;1.83;;;;;;;;;;5111854;28;20391;-73
2022/05/28 01:12:24;;;;;;;10.80;2.33;;;;;;;;;;5084999;28;20107;-73
2022/05/28 01:15:02;;;;;;;8.55;1.63;;;;;;;;;;5095759;28;20106;-73
2022/05/28 01:17:31;;;;;;;9.93;1.20;;;;;;;;;;5106570;28;20034;-74
2022/05/28 01:20:20;;;;;;;10.20;1.55;;;11.20;99.90;;;;;;5105885;28;20061;-73
2022/05/28 01:23:05;;;;;;;12.18;1.73;;;;;;;;;;5084427;28;20563;-73
2022/05/28 01:25:49;;;;;;;8.85;1.20;;;;;;;;;;5096572;28;20499;-73
2022/05/28 01:28:17;;;;;;;10.68;3.10;;;;;;;;;;5104400;28;20107;-73
2022/05/28 01:30:44;;;;;;;11.45;1.50;;;;;;;;;;5095041;28;20123;-73
2022/05/28 01:33:11;;;;;;;11.27;1.70;;;;;;;;;;5092442;28;20436;-73
2022/05/28 01:35:38;;;;;;;8.85;1.83;;;;;;;;;;5091462;28;20036;-73
2022/05/28 01:38:04;;;;;;;5.25;1.38;;;;;;;;;;5092389;28;20028;-74
2022/05/28 01:40:31;;;;;;;13.52;1.58;;;;;;;;;;5097454;28;20040;-75
2022/05/28 01:43:01;;;;;;;11.90;1.80;;;;;;;;;;5109160;28;20613;-72
2022/05/28 01:45:29;;;;;;;8.52;1.27;;;;;;;;;;5105573;28;20044;-73
2022/05/28 01:47:57;;;;;;;9.82;1.20;;;;;;;;;;5092618;28;20034;-73
2022/05/28 01:50:25;;;;;;;13.63;2.50;;;;;;;;;;5093462;28;20101;-73
2022/05/28 01:52:51;;;;;;;10.18;1.27;;;;;;;;;;5106807;28;20474;-73
2022/05/28 01:55:19;;;;;;;10.15;1.83;;;;;;;;;;5072647;28;20019;-72
2022/05/28 01:57:45;;;;;;;10.57;1.50;;;;;;;;;;5093671;28;20025;-73
2022/05/28 02:00:11;;;;;;;12.15;1.90;;;;;;;;;;5074966;28;20028;-73
2022/05/28 02:02:38;;;;;;;14.10;1.42;;;;;;;;;;5093168;28;20542;-74
2022/05/28 02:05:04;;;;;;;13.07;2.42;;;;;;;;;;5096363;28;20451;-74
2022/05/28 02:07:30;;;;;;;15.25;2.75;;;;;;;;;;5105535;28;20039;-74
2022/05/28 02:10:01;;;;;;;14.98;2.10;;;;;;;;;;5108604;28;20074;-74
2022/05/28 02:12:37;;;;;;;10.23;1.30;;;;;;;;;;5095189;28;20043;-74
2022/05/28 02:15:16;;;;;;;10.00;1.60;;;;;;;;;;5079161;28;20055;-73
2022/05/28 02:17:50;;;;;;;14.02;2.95;;;;;;;;;;5105298;28;20063;-73
2022/05/28 02:20:34;;;;;;;9.40;1.80;;;;;;;;;;5089596;28;20131;-73
2022/05/28 02:23:09;;;;;;;7.93;1.42;;;;;;;;;;5103787;28;20027;-73
2022/05/28 02:25:41;;;;;;;14.65;1.48;;;;;;;;;;5100278;28;20039;-73
2022/05/28 02:28:08;;;;;;;10.15;2.10;;;;;;;;;;5106214;28;20028;-74
2022/05/28 02:30:34;;;;;;;11.35;1.80;;;;;;;;;;5091342;28;20047;-73
2022/05/28 02:33:05;;;;;;;11.05;1.88;;;;;;;;;;5082401;28;20055;-73
2022/05/28 02:35:31;;;;;;;10.50;1.13;;;;;;;;;;5078467;28;20050;-73
2022/05/28 02:37:57;;;;;;;17.73;2.20;;;;;;;;;;5106027;28;20059;-73
2022/05/28 02:40:23;;;;;;;11.15;1.60;;;;;;;;;;5095618;28;20032;-73
2022/05/28 02:42:49;;;;;;;13.25;1.50;;;;;;;;;;5081824;28;20036;-73
2022/05/28 02:45:15;;;;;;;9.18;1.65;;;;;;;;;;5094301;28;20049;-73
2022/05/28 02:47:44;;;;;;;14.93;1.65;;;;;;;;;;5090098;28;20034;-73
2022/05/28 02:50:10;;;;;;;6.32;1.55;;;;;;;;;;5080689;28;20031;-74
2022/05/28 02:52:36;;;;;;;9.50;1.60;;;;;;;;;;5089781;28;20039;-73
2022/05/28 02:55:02;;;;;;;17.13;1.55;;;;;;;;;;5092688;28;20064;-73
2022/05/28 02:57:28;;;;;;;11.00;1.63;;;;;;;;;;5099353;28;20023;-73
2022/05/28 02:59:56;;;;;;;13.75;1.40;;;;;;;;;;5094006;28;20024;-73
2022/05/28 03:02:22;;;;;;;14.63;1.55;;;;;;;;;;5088510;28;20098;-73
2022/05/28 03:04:48;;;;;;;14.88;2.55;;;;;;;;;;5099786;28;20374;-73
2022/05/28 03:07:14;;;;;;;16.23;2.25;;;;;;;;;;5095111;28;20051;-73
2022/05/28 03:09:40;;;;;;;14.55;1.75;;;;;;;;;;5097313;28;20032;-73
2022/05/28 03:12:06;;;;;;;15.88;2.20;;;;;;;;;;5091374;28;20060;-74
2022/05/28 03:14:32;;;;;;;21.20;1.85;;;;;;;;;;5095939;28;20111;-73
2022/05/28 03:16:58;;;;;;;17.85;2.92;;;;;;;;;;5093277;28;20115;-73
2022/05/28 03:19:24;;;;;;;15.07;2.10;;;;;;;;;;5094870;28;20107;-73
2022/05/28 03:21:50;;;;;;;24.30;2.63;;;;;;;;;;5073542;28;20039;-73
2022/05/28 03:24:16;;;;;;;12.95;1.83;;;;;;;;;;5079103;28;20534;-73
2022/05/28 03:26:42;;;;;;;12.43;2.17;;;;;;;;;;5087641;28;20054;-73
2022/05/28 03:29:08;;;;;;;11.73;1.85;;;;;;;;;;5100007;28;20479;-73
2022/05/28 03:31:34;;;;;;;14.60;3.00;;;;;;;;;;5072967;28;20035;-73
2022/05/28 03:34:00;;;;;;;12.45;1.90;;;;;;;;;;5073548;28;20077;-73
2022/05/28 03:36:27;;;;;;;15.80;2.08;;;;;;;;;;5094074;28;20103;-73
2022/05/28 03:38:53;;;;;;;22.50;2.38;;;;;;;;;;5099910;28;20056;-73
2022/05/28 03:41:19;;;;;;;14.98;1.90;;;;;;;;;;5092036;28;20457;-73
2022/05/28 03:43:45;;;;;;;10.43;2.30;;;;;;;;;;5073296;28;20480;-74
2022/05/28 03:46:22;;;;;;;13.63;2.22;;;;;;;;;;5091962;28;20042;-73
2022/05/28 03:48:48;;;;;;;18.92;3.15;;;;;;;;;;5095553;28;20047;-74
2022/05/28 03:51:14;;;;;;;13.55;2.35;;;;;;;;;;5089021;28;20733;-73
2022/05/28 03:53:40;;;;;;;13.93;2.42;;;;;;;;;;5075897;28;20040;-73
2022/05/28 03:56:07;;;;;;;16.40;2.90;;;;;;;;;;5091619;28;20032;-73
2022/05/28 03:58:33;;;;;;;15.20;1.98;;;;;;;;;;5079272;28;20101;-73
2022/05/28 04:00:58;;;;;;;13.98;2.45;;;;;;;;;;5088968;28;20072;-74
2022/05/28 04:03:26;;;;;;;16.77;2.67;;;;;;;;;;5109016;28;20059;-73
2022/05/28 04:05:52;;;;;;;11.23;2.20;;;;;;;;;;5096890;28;20098;-73
2022/05/28 04:08:18;;;;;;;15.60;2.22;;;;;;;;;;5091185;28;20024;-73
2022/05/28 04:10:44;;;;;;;16.15;2.20;;;;;;;;;;5089849;28;20399;-73
2022/05/28 04:13:10;;;;;;;12.40;2.22;;;;;;;;;;5093536;28;20028;-74
2022/05/28 04:15:36;;;;;;;12.70;2.20;;;;;;;;;;5103072;28;20066;-73
2022/05/28 04:18:02;;;;;;;11.40;2.00;;;;;;;;;;5114018;28;20039;-73
2022/05/28 04:20:28;;;;;;;16.15;1.83;;;;;;;;;;5111050;28;20038;-73
2022/05/28 04:22:54;;;;;;;13.48;2.40;;;;;;;;;;5113587;28;20063;-73
2022/05/28 04:25:20;;;;;;;16.35;2.17;;;;;;;;;;5123054;28;20063;-73
2022/05/28 04:27:46;;;;;;;12.82;1.70;;;;;;;;;;5117248;28;20118;-73
2022/05/28 04:30:12;;;;;;;11.57;1.70;;;;;;;;;;5118099;28;20027;-73
2022/05/28 04:32:38;;;;;;;13.23;2.25;;;;;;;;;;5114644;28;20044;-73
2022/05/28 04:35:04;;;;;;;21.80;2.25;;;;;;;;;;5100777;28;20031;-72
2022/05/28 04:37:30;;;;;;;20.50;2.92;;;;;;;;;;5131532;28;20583;-74
2022/05/28 04:39:56;;;;;;;14.80;2.65;;;;;;;;;;5114198;28;20374;-74
2022/05/28 04:42:22;;;;;;;15.65;2.60;;;;;;;;;;5118093;28;20322;-74
2022/05/28 04:44:48;;;;;;;10.50;1.85;;;;;;;;;;5114229;28;20032;-74
2022/05/28 04:47:14;;;;;;;23.48;3.20;;;;;;;;;;5111008;28;20374;-74
2022/05/28 04:49:40;;;;;;;20.20;2.17;;;;;;;;;;5110756;28;20114;-74
2022/05/28 04:52:06;;;;;;;20.58;2.38;;;;;;;;;;5126889;28;20080;-74
2022/05/28 04:54:32;;;;;;;17.27;2.40;;;;;;;;;;5109862;28;20030;-72
2022/05/28 04:56:58;;;;;;;16.52;2.53;;;;;;;;;;5114774;28;20034;-73
2022/05/28 04:59:24;;;;;;;21.05;3.65;;;;;;;;;;5093239;28;20088;-73
2022/05/28 05:01:50;;;;;;;17.17;2.42;;;;;;;;;;5109378;28;20043;-74
2022/05/28 05:04:17;;;;;;;16.10;3.58;;;;;;;;;;5111747;28;20081;-73
2022/05/28 05:06:43;;;;;;;16.35;3.15;;;;;;;;;;5110361;27;20367;-73
2022/05/28 05:09:08;;;;;;;20.17;2.53;;;;;;;;;;5113874;27;20084;-73
2022/05/28 05:11:34;;;;;;;11.57;3.40;;;;;;;;;;5116054;27;20584;-74
2022/05/28 05:14:01;;;;;;;13.48;1.65;;;;;;;;;;5114204;28;20387;-76
2022/05/28 05:16:27;;;;;;;17.98;2.50;;;;;;;;;;5113290;27;20528;-76
2022/05/28 05:18:53;;;;;;;20.13;2.88;;;;;;;;;;5089976;28;20390;-77
2022/05/28 05:21:18;;;;;;;20.65;4.05;;;;;;;;;;5125398;27;20051;-77
2022/05/28 05:23:44;;;;;;;17.10;2.50;;;;;;;;;;5102062;28;20036;-77
2022/05/28 05:26:15;;;;;;;17.52;3.15;;;;;;;;;;5118388;27;20035;-77
2022/05/28 05:28:41;;;;;;;18.90;3.05;;;;;;;;;;5093524;28;20023;-76
2022/05/28 05:31:07;;;;;;;17.70;2.25;;;;;;;;;;5119844;27;20038;-76
2022/05/28 05:33:34;;;;;;;12.25;2.47;;;;;;;;;;5114792;28;20031;-77
2022/05/28 05:36:00;;;;;;;17.90;3.22;;;;;;;;;;5111038;27;20493;-73
2022/05/28 05:38:26;;;;;;;21.83;6.80;;;;;;;;;;5123447;27;20027;-77
2022/05/28 05:40:52;;;;;;;21.25;4.47;;;;;;;;;;5121601;27;20114;-74
2022/05/28 05:43:19;;;;;;;16.60;2.75;;;;;;;;;;5126303;27;20039;-75
2022/05/28 05:45:55;;;;;;;10.82;1.75;;;;;;;;;;5113066;27;20027;-75
2022/05/28 05:48:21;;;;;;;13.90;2.38;;;;;;;;;;5111612;27;20487;-78
2022/05/28 05:50:48;;;;;;;13.90;2.28;;;;;;;;;;5109576;27;20506;-73
2022/05/28 05:53:14;;;;;;;14.93;2.55;;;;;;;;;;5095393;28;20488;-73
2022/05/28 05:55:40;;;;;;;12.55;1.77;;;;;;;;;;5104858;28;20032;-73
2022/05/28 05:58:06;;;;;;;13.82;1.92;;;;;;;;;;5105691;28;20394;-72
2022/05/28 06:00:32;;;;;;;13.25;1.60;;;;;;;;;;5109007;27;20115;-73
2022/05/28 06:02:58;;;;;;;12.75;2.22;;;;;;;;;;5115437;27;20050;-73
2022/05/28 06:05:24;;;;;;;17.23;3.20;;;;;;;;;;5105642;28;20028;-74
2022/05/28 06:07:50;;;;;;;13.18;1.83;;;;;;;;;;5111407;27;20043;-73
2022/05/28 06:10:16;;;;;;;15.52;3.08;;;;;;;;;;5107985;28;20031;-73
2022/05/28 06:12:42;;;;;;;15.32;2.75;;;;;;;;;;5109270;28;20047;-74
2022/05/28 06:15:09;;;;;;;22.08;3.05;;;;;;;;;;5106076;28;20034;-74
2022/05/28 06:17:35;;;;;;;18.77;2.75;;;;;;;;;;5092633;28;20036;-75
2022/05/28 06:20:05;;;;;;;13.95;2.40;;;;;;;;;;5106732;27;20024;-74
2022/05/28 06:22:31;;;;;;;17.83;2.97;;;;;;;;;;5105845;27;20394;-74
2022/05/28 06:24:57;;;;;;;17.17;3.35;;;;;;;;;;5108316;28;20031;-74
2022/05/28 06:27:23;;;;;;;13.57;2.17;;;;;;;;;;5104879;28;20040;-74
2022/05/28 06:29:49;;;;;;;18.83;2.83;;;;;;;;;;5109095;28;20446;-74
2022/05/28 06:32:15;;;;;;;25.13;4.63;;;;;;;;;;5111470;27;20058;-72
2022/05/28 06:34:41;;;;;;;26.90;9.10;;;;;;;;;;5110791;27;20040;-72
2022/05/28 06:37:08;;;;;;;13.30;2.47;;;;;;;;;;5097853;27;20027;-74
2022/05/28 06:39:35;;;;;;;16.75;2.75;;;;;;;;;;5111548;27;20080;-74
2022/05/28 06:42:01;;;;;;;14.30;3.25;;;;;;;;;;5127316;27;20131;-74
2022/05/28 06:44:27;;;;;;;18.48;2.63;;;;;;;;;;5112769;27;20051;-74
2022/05/28 06:46:53;;;;;;;15.85;3.30;;;;;;;;;;5110325;27;20036;-74
2022/05/28 06:49:19;;;;;;;19.30;3.33;;;;;;;;;;5116062;27;20098;-74
2022/05/28 06:51:45;;;;;;;22.38;3.08;;;;;;;;;;5111349;28;20118;-74
2022/05/28 06:54:11;;;;;;;16.65;3.45;;;;;;;;;;5108643;28;20053;-74
2022/05/28 06:56:37;;;;;;;22.17;3.42;;;;;;;;;;5119771;27;20095;-74
2022/05/28 06:59:03;;;;;;;15.70;3.05;;;;;;;;;;5104254;28;20059;-75
2022/05/28 07:01:29;;;;;;;20.13;2.50;;;;;;;;;;5084730;28;20035;-74
2022/05/28 07:03:55;;;;;;;21.58;3.03;;;;;;;;;;5088428;28;20075;-75
2022/05/28 07:06:21;;;;;;;14.82;2.42;;;;;;;;;;5111949;28;20106;-74
2022/05/28 07:08:47;;;;;;;18.17;2.63;;;;;;;;;;5087230;27;20038;-75
2022/05/28 07:11:13;;;;;;;14.20;2.42;;;;;;;;;;5111243;27;20027;-74
2022/05/28 07:13:39;;;;;;;14.82;2.63;;;;;;;;;;5111861;27;20019;-74
2022/05/28 07:16:07;;;;;;;14.85;2.58;;;;;;;;;;5116575;27;20031;-75
2022/05/28 07:18:34;;;;;;;15.00;2.17;;;;;;;;;;5110634;27;20034;-74
2022/05/28 07:21:00;;;;;;;26.98;8.90;;;;;;;;;;5109693;27;20036;-74
2022/05/28 07:23:27;;;;;;;20.30;6.95;;;;;;;;;;5130423;27;20030;-74
2022/05/28 07:26:13;;;;;;;23.65;3.20;;;;;;;;;;5117368;27;20372;-75
2022/05/28 07:28:40;;;;;;;13.52;2.60;;;;;;;;;;5108357;27;20032;-74
2022/05/28 07:31:08;;;;;;;18.30;3.42;;;;;;;;;;5113598;27;20027;-74
2022/05/28 07:33:38;;;;;;;17.33;2.70;;;;;;;;;;5125866;27;20132;-74
2022/05/28 07:36:05;;;;;;;17.83;2.83;;;;;;;;;;5092637;28;20040;-74
2022/05/28 07:38:32;;;;;;;16.40;2.28;;;;;;;;;;5101684;28;20061;-74
2022/05/28 07:41:02;;;;;;;16.73;2.63;;;;;;;;;;5117408;27;20536;-75
2022/05/28 07:43:28;;;;;;;14.00;2.80;;;;;;;;;;5110629;27;20042;-75
2022/05/28 07:45:54;;;;;;;20.55;3.42;;;;;;;;;;5105968;28;20039;-77
2022/05/28 07:48:20;;;;;;;22.05;3.40;;;;;;;;;;5107959;27;20036;-76
2022/05/28 07:50:46;;;;;;;17.85;3.45;;;;;;;;;;5113929;27;20023;-77
2022/05/28 07:53:13;;;;;;;12.50;3.38;;;;;;;;;;5101467;27;20059;-75
2022/05/28 07:55:39;;;;;;;15.55;2.90;;;;;;;;;;5103874;27;20023;-75
2022/05/28 07:58:10;;;;;;;7.93;2.30;;;;;;;;;;5105668;27;20096;-74
2022/05/28 08:00:53;;;;;;;24.17;4.25;;;;;;;;;;5111842;27;20028;-74
2022/05/28 08:03:20;;;;;;;22.75;3.33;;;;;;;;;;5109752;28;20093;-76
2022/05/28 08:05:47;;;;;;;12.02;2.25;;;;;;;;;;5117220;27;20031;-75
2022/05/28 08:08:13;;;;;;;15.10;3.10;;;;;;;;;;5102174;28;20027;-77
2022/05/28 08:10:40;;;;;;;21.73;3.33;;;;;;;;;;5110024;28;20183;-75
2022/05/28 08:13:10;;;;;;;13.73;2.45;;;;;;;;;;5108752;28;20487;-75
2022/05/28 08:15:37;;;;;;;16.77;2.25;;;;;;;;;;5119990;28;20034;-75
2022/05/28 08:18:03;;;;;;;15.20;2.40;;;;;;;;;;5108378;28;20023;-74
2022/05/28 08:23:14;;;;;;;18.55;2.88;;;;;;;;;;5111063;28;20096;-74
2022/05/28 08:25:40;;;;;;;14.27;2.58;;;;;;;;;;5112511;28;20028;-75
2022/05/28 08:28:11;;;;;;;18.60;3.22;;;14.10;99.90;;;;;;5122458;28;20096;-75
2022/05/28 08:30:38;;;;;;;15.60;3.08;;;;;;;;;;5104689;28;20057;-75
2022/05/28 08:33:04;;;;;;;15.68;2.30;;;;;;;;;;5111331;28;20032;-75
2022/05/28 08:35:30;;;;;;;25.73;3.25;;;;;;;;;;5106420;28;20020;-75
2022/05/28 08:37:56;;;;;;;19.63;3.22;;;;;;;;;;5105442;28;20519;-75
2022/05/28 08:40:25;;;;;;;13.18;2.28;;;;;;;;;;5112930;27;20039;-74
2022/05/28 08:42:51;;;;;;;19.10;3.05;;;;;;;;;;5111088;27;20527;-75
2022/05/28 08:45:17;;;;;;;10.98;3.40;;;;;;;;;;5110739;28;20031;-75
2022/05/28 08:47:47;;;;;;;12.40;2.20;;;17.10;99.90;;;;;;5114782;28;20059;-75
2022/05/28 08:50:14;;;;;;;15.27;2.45;;;;;;;;;;5110282;27;20040;-75
2022/05/28 08:52:52;;;;;;;17.15;2.58;;;;;;;;;;5116457;27;20036;-75
2022/05/28 08:55:22;;;;;;;11.10;2.42;;;;;;;;;;5111820;28;20051;-75
2022/05/28 08:57:48;;;;;;;13.85;1.88;;;;;;;;;;5111514;28;20028;-75
2022/05/28 09:00:17;;;;;;;13.68;1.95;;;;;;;;;;5111321;28;20111;-76
2022/05/28 09:02:46;;;;;;;12.27;2.28;;;;;;;;;;5107175;28;20525;-75
2022/05/28 09:05:21;;;;;;;10.45;1.98;;;;;;;;;;5113512;28;20024;-75
2022/05/28 09:07:48;;;;;;;12.32;1.80;;;;;;;;;;5108730;27;20107;-75
2022/05/28 09:10:14;;;;;;;13.98;2.58;;;;;;;;;;5114611;27;20057;-77
2022/05/28 09:12:59;;;;;;;10.77;2.10;;;;;;;;;;5105459;27;20027;-76
2022/05/28 09:15:25;;;;;;;11.25;2.40;;;;;;;;;;5106005;27;20035;-74
2022/05/28 09:17:56;;;;;;;14.20;2.83;;;17.80;99.80;;;;;;5110618;27;20027;-75
2022/05/28 09:20:27;;;;;;;9.45;2.58;;;;;;;;;;5109574;28;20044;-76
2022/05/28 09:22:53;;;;;;;12.45;2.13;;;;;;;;;;5109943;28;20429;-76
2022/05/28 09:25:20;;;;;;;11.70;2.83;;;;;;;;;;5107167;27;20111;-76
2022/05/28 09:28:01;;;;;;;11.73;2.22;;;;;;;;;;5101814;28;20479;-75
2022/05/28 09:30:42;;;;;;;17.15;3.08;;;;;;;;;;5099273;27;20502;-74
2022/05/28 09:33:16;;;;;;;19.27;2.72;;;;;;;;;;5102978;28;20487;-75
2022/05/28 09:35:51;;;;;;;13.77;2.22;;;;;;;;;;5102182;27;20106;-75
2022/05/28 09:38:17;;;;;;;13.38;2.75;;;;;;;;;;5106943;27;20024;-74
2022/05/28 09:40:43;;;;;;;14.68;2.22;;;;;;;;;;5116756;27;20042;-74
2022/05/28 09:43:12;;;;;;;13.95;2.17;;;;;;;;;;5107726;27;20080;-74
2022/05/28 09:45:50;;;;;;;14.82;2.70;;;;;;;;;;5111022;28;20367;-75
2022/05/28 09:48:18;;;;;;;14.77;2.40;;;;;;;;;;5109683;28;20036;-75
2022/05/28 09:50:44;;;;;;;16.38;2.53;;;;;;;;;;5109113;28;20240;-75
2022/05/28 09:56:06;;;;;;;14.63;2.03;;;;;;;;;;5107116;28;20086;-75
2022/05/28 09:58:37;;;;;;;21.77;4.80;;;;;;;;;;5128525;27;20035;-74
2022/05/28 10:01:08;;;;;;;17.15;2.22;;;;;;;;;;5109963;28;20039;-75
2022/05/28 10:06:21;;;;;;;12.73;2.42;;;;;;;;;;5113135;28;20504;-76
2022/05/28 10:08:47;;;;;;;11.85;2.72;;;;;;;;;;5113849;28;20039;-76
2022/05/28 10:11:15;;;;;;;19.98;2.47;;;;;;;;;;5087570;27;20047;-75
2022/05/28 10:13:43;;;;;;;14.10;2.22;;;;;;;;;;5122529;27;20057;-75
2022/05/28 10:16:09;;;;;;;10.02;2.10;;;;;;;;;;5122380;27;20024;-76
2022/05/28 10:18:36;;;;;;;16.90;2.28;;;;;;;;;;5101446;28;20035;-75
2022/05/28 10:21:07;;;;;;;18.08;2.33;;;;;;;;;;5108992;27;20598;-75
2022/05/28 10:23:35;;;;;;;11.63;2.10;;;;;;;;;;5101102;28;20056;-75
2022/05/28 10:26:02;;;;;;;13.27;3.03;;;;;;;;;;5117430;27;20037;-74
2022/05/28 10:28:29;;;;;;;12.57;2.60;;;;;;;;;;5092953;28;20059;-74
2022/05/28 10:30:56;;;;;;;9.73;2.22;;;;;;;;;;5106502;28;20103;-76
2022/05/28 10:33:24;;;;;;;10.05;1.67;;;;;;;;;;5105617;28;20053;-76
2022/05/28 10:35:50;;;;;;;16.02;2.60;;;;;;;;;;5115970;27;20049;-76
2022/05/28 10:38:21;;;;;;;16.23;3.72;;;;;;;;;;5112672;28;20023;-76
2022/05/28 10:41:00;;;;;;;14.05;2.60;;;15.70;99.90;;;;;;5105253;28;20020;-76
2022/05/28 10:43:31;;;;;;;17.27;2.58;;;;;;;;;;5107047;27;20035;-76
2022/05/28 10:46:17;;;;;;;12.77;2.10;;;;;;;;;;5115385;27;20038;-75
2022/05/28 10:48:55;;;;;;;12.20;3.53;;;;;;;;;;5114482;27;20019;-75
2022/05/28 10:51:21;;;;;;;19.92;4.60;;;;;;;;;;5107481;27;20043;-77
2022/05/28 10:54:05;;;;;;;14.02;2.60;;;;;;;;;;5103016;27;20134;-75
2022/05/28 10:56:50;;;;;;;16.42;2.60;;;;;;;;;;5111062;28;20059;-81
2022/05/28 10:59:39;;;;;;;10.40;2.13;;;;;;;;;;5095259;28;20053;-77
2022/05/28 11:02:05;;;;;;;14.13;2.33;;;;;;;;;;5110069;28;20548;-78
2022/05/28 11:04:31;;;;;;;11.13;1.40;;;;;;;;;;5113446;28;20510;-79
2022/05/28 11:07:09;;;;;;;9.98;1.90;;;;;;;;;;5107921;28;20042;-78
2022/05/28 11:10:12;;;;;;;8.63;1.77;;;18.10;97.30;;;;;;5106719;28;20027;-78
2022/05/28 11:12:57;;;;;;;12.70;2.03;;;;;;;;;;5111803;28;20095;-79
2022/05/28 11:15:41;;;;;;;13.45;2.22;;;17.60;98.70;;;;;;5107521;28;20091;-79
2022/05/28 11:18:19;;;;;;;9.95;1.80;;;;;;;;;;5112552;28;20027;-78
2022/05/28 11:20:58;;;;;;;11.32;2.35;;;;;;;;;;5095433;28;20103;-78
2022/05/28 11:23:42;;;;;;;14.60;2.30;;;;;;;;;;5102633;28;20035;-78
2022/05/28 11:26:20;;;;;;;10.77;2.22;;;;;;;;;;5094784;28;20024;-79
2022/05/28 11:28:56;;;;;;;8.57;2.72;;;;;;;;;;5109886;28;20419;-79
2022/05/28 11:31:54;;;;;;;13.98;2.75;;;15.90;99.90;;;;;;5111253;28;20034;-78
2022/05/28 11:34:21;;;;;;;11.27;2.20;;;;;;;;;;5096250;28;20069;-78
2022/05/28 11:36:56;;;;;;;16.08;1.65;;;;;;;;;;5092966;28;20035;-78
2022/05/28 11:39:32;;;;;;;14.13;2.25;;;;;;;;;;5110135;28;20031;-77
2022/05/28 11:42:10;;;;;;;9.40;1.73;;;;;;;;;;5106570;28;20024;-79
2022/05/28 11:44:47;;;;;;;10.05;1.80;;;;;;;;;;5117593;28;20071;-79
2022/05/28 11:47:16;;;;;;;10.82;1.60;;;;;;;;;;5113159;28;20446;-78
2022/05/28 11:52:45;;;;;;;8.68;1.88;;;;;;;;;;5109001;28;20079;-79
2022/05/28 11:55:15;;;;;;;10.70;2.67;;;;;;;;;;5112176;28;20032;-78
2022/05/28 11:57:49;;;;;;;8.48;1.45;;;;;;;;;;5111772;28;20031;-79
2022/05/28 12:00:16;;;;;;;7.05;1.35;;;;;;;;;;5111627;28;20076;-78
2022/05/28 12:02:45;;;;;;;10.57;2.15;;;;;;;;;;5112109;28;20066;-78
2022/05/28 12:05:15;;;;;;;8.00;1.98;;;;;;;;;;5111196;28;20028;-78
2022/05/28 12:07:41;;;;;;;12.60;2.53;;;;;;;;;;5115840;28;20042;-78
2022/05/28 12:10:13;;;;;;;11.75;2.22;;;;;;;;;;5116046;28;20438;-79
2022/05/28 12:12:51;;;;;;;;;;;16.70;99.90;;;;;;5107804;28;20035;-79
2022/05/28 12:15:17;;;;;;;10.27;1.70;;;;;;;;;;5111470;28;19911;-79
2022/05/28 12:17:54;;;;;;;13.40;2.42;;;;;;;;;;5108342;28;20080;-78
2022/05/28 12:20:27;;;;;;;13.32;2.22;;;;;;;;;;5111823;28;20050;-78
2022/05/28 12:22:56;;;;;;;10.23;1.95;;;17.70;99.90;;;;;;5104784;28;20119;-79
2022/05/28 12:25:29;;;;;;;10.48;2.20;;;;;;;;;;5084464;28;20066;-79
2022/05/28 12:28:02;;;;;;;12.93;2.30;;;;;;;;;;5109866;28;20036;-79
2022/05/28 12:30:42;;;;;;;11.02;2.05;;;;;;;;;;5113265;28;20133;-78
2022/05/28 12:33:26;;;;;;;13.23;1.90;;;17.10;99.90;;;;;;5111411;28;20078;-78
2022/05/28 12:35:55;;;;;;;11.75;2.33;;;;;;;;;;5112252;28;20028;-79
2022/05/28 12:38:36;;;;;;;9.18;1.60;;;;;;;;;;5103027;28;20091;-79
2022/05/28 12:41:02;;;;;;;13.13;2.15;;;;;;;;;;5092130;28;20089;-79
2022/05/28 12:43:29;;;;;;;9.35;2.00;;;;;;;;;;5109790;28;20516;-79
2022/05/28 12:45:59;;;;;;;12.35;2.10;;;;;;;;;;5112347;28;20463;-79
2022/05/28 12:48:25;;;;;;;9.43;1.55;;;;;;;;;;5085015;28;20020;-79
2022/05/28 12:51:10;;;;;;;12.25;1.83;;;;;;;;;;5111881;28;20077;-79
2022/05/28 12:53:47;;;;;;;11.80;1.60;;;;;;;;;;5105808;28;20024;-78
2022/05/28 12:56:40;;;;;;;8.35;1.35;;;;;;;;;;5109120;28;20554;-78
2022/05/28 12:59:08;;;;;;;6.45;1.58;;;;;;;;;;5107430;28;20031;-78
2022/05/28 13:01:36;;;;;;;7.20;1.38;;;;;;;;;;5107309;28;20388;-78
2022/05/28 13:04:06;;;;;;;10.38;1.50;;;;;;;;;;5110761;28;20048;-78
2022/05/28 13:06:47;;;;;;;5.88;1.42;;;;;;;;;;5111305;28;20020;-78
2022/05/28 13:09:13;;;;;;;11.70;1.42;;;;;;;;;;5110427;28;20054;-78
2022/05/28 13:12:01;;;;;;;11.02;1.73;;;;;;;;;;5107748;28;20372;-78
2022/05/28 13:14:41;;;;;;;15.32;1.70;;;;;;;;;;5098294;28;20464;-78
2022/05/28 13:17:31;;;;;;;9.18;2.00;;;;;;;;;;5110416;28;20061;-78
2022/05/28 13:20:03;;;;;;;14.27;1.83;;;;;;;;;;5111077;28;20104;-79
2022/05/28 13:22:48;;;;;;;8.15;2.13;;;;;;;;;;5095880;28;20044;-79
2022/05/28 13:25:18;;;;;;;6.22;1.38;;;;;;;;;;5104820;27;20380;-79
2022/05/28 13:27:51;;;;;;;9.40;1.67;;;;;;;;;;5105305;27;20035;-77
2022/05/28 13:30:19;;;;;;;14.35;1.63;;;;;;;;;;5111791;27;20467;-77
2022/05/28 13:32:45;;;;;;;8.73;1.92;;;;;;;;;;5104217;27;20047;-79
2022/05/28 13:35:13;;;;;;;8.48;1.88;;;;;;;;;;5113617;27;20019;-79
2022/05/28 13:37:40;;;;;;;10.15;1.75;;;;;;;;;;5108972;28;20100;-78
2022/05/28 13:40:06;;;;;;;10.73;1.90;;;;;;;;;;5101380;28;20396;-79
2022/05/28 13:42:34;;;;;;;9.13;1.85;;;;;;;;;;5110113;28;22008;-79
2022/05/28 13:45:01;;;;;;;8.93;1.60;;;;;;;;;;5094105;28;20479;-78
2022/05/28 13:47:33;;;;;;;9.30;1.60;;;;;;;;;;5108218;28;20039;-78
2022/05/28 13:50:01;;;;;;;13.30;1.50;;;;;;;;;;5107462;28;20474;-78
2022/05/28 13:52:29;;;;;;;9.43;1.25;;;;;;;;;;5111478;28;20039;-78
2022/05/28 13:54:59;;;;;;;4.38;0.80;;;;;;;;;;5103040;27;20016;-74
2022/05/28 13:57:54;;;;;;;7.18;1.75;;;;;;;;;;5112859;27;20085;-75
2022/05/28 14:00:23;;;;;;;9.63;1.30;;;;;;;;;;5087802;27;20074;-73
2022/05/28 14:02:53;;;;;;;5.10;1.05;;;;;;;;;;5106265;27;20058;-75
2022/05/28 14:05:30;;;;;;;9.10;3.15;;;;;;;;;;5106668;27;20027;-75
2022/05/28 14:08:02;;;;;;;9.63;1.58;;;17.10;98.20;;;;;;5110353;28;20102;-76
2022/05/28 14:10:30;;;;;;;9.18;1.48;;;;;;;;;;5100200;27;20077;-78
2022/05/28 14:12:56;;;;;;;7.05;1.33;;;;;;;;;;5107818;27;20461;-77
2022/05/28 14:15:25;;;;;;;11.32;1.77;;;;;;;;;;5109779;28;20106;-77
2022/05/28 14:17:51;;;;;;;9.80;1.55;;;;;;;;;;5090255;28;20148;-77
2022/05/28 14:20:37;;;;;;;10.77;2.03;;;16.40;99.90;;;;;;5106910;28;20039;-76
2022/05/28 14:23:04;;;;;;;8.35;1.50;;;;;;;;;;5109708;28;20604;-75
2022/05/28 14:25:32;;;;;;;10.25;1.55;;;;;;;;;;5103357;27;20118;-75
2022/05/28 14:28:05;;;;;;;10.13;1.80;;;;;;;;;;5107886;27;20032;-76
2022/05/28 14:30:33;;;;;;;10.98;2.45;;;;;;;;;;5092755;28;20034;-76
2022/05/28 14:32:59;;;;;;;5.18;1.10;;;;;;;;;;5089283;28;20391;-75
2022/05/28 14:35:37;;;;;;;6.80;1.40;;;;;;;;;;5107297;27;20110;-75
2022/05/28 14:38:06;;;;;;;7.95;1.38;;;;;;;;;;5100230;27;20039;-76
2022/05/28 14:40:34;;;;;;;11.55;1.50;;;;;;;;;;5104940;28;20031;-76
2022/05/28 14:43:03;;;;;;;8.30;1.48;;;;;;;;;;5088846;28;20030;-76
2022/05/28 14:45:31;;;;;;;8.30;1.50;;;;;;;;;;5105860;27;20034;-77
2022/05/28 14:48:00;;;;;;;7.05;1.17;;;;;;;;;;5103222;27;20191;-77
2022/05/28 14:50:26;;;;;;;8.73;1.67;;;;;;;;;;5106851;27;20028;-73
2022/05/28 14:52:52;;;;;;;8.93;1.70;;;;;;;;;;5107965;27;20106;-77